Time;durP1;ratioP1;P1;durP2;ratioP2;P2;SDS_P1;SDS_P2;PMS_P1;PMS_P2;Temp;Humidity;BMP_temperature;BMP_pressure;BME280_temperature;BME280_humidity;BME280_pressure;Samples;Min_cycle;Max_cycle;Signal;HPM_P1;HPM_P2
2022/09/21 00:01:38;;;;;;;3.43;2.60;;;;;;;8.93;100.00;99970.38;5130711;28;20194;-81
2022/09/21 00:04:07;;;;;;;4.10;2.43;;;;;;;8.95;100.00;99981.75;5118381;27;20275;-82
2022/09/21 00:06:36;;;;;;;3.90;2.77;;;;;;;9.03;100.00;99970.84;5109916;28;20634;-81
2022/09/21 00:09:08;;;;;;;3.10;2.60;;;;;;;9.03;100.00;99970.84;5112637;28;20248;-83
2022/09/21 00:11:37;;;;;;;3.33;2.60;;;;;;;8.98;100.00;99967.56;5115150;28;20219;-81
2022/09/21 00:14:09;;;;;;;5.90;2.90;;;;;;;9.08;100.00;99967.06;5115697;28;20234;-81
2022/09/21 00:16:38;;;;;;;4.30;3.00;;;;;;;8.92;100.00;99979.25;5117875;27;20257;-81
2022/09/21 00:19:06;;;;;;;3.63;2.67;;;;;;;8.92;100.00;99971.31;5114091;27;20219;-81
2022/09/21 00:21:37;;;;;;;2.60;2.40;;;;;;;8.77;100.00;99967.53;5110527;28;20187;-81
2022/09/21 00:24:08;;;;;;;2.80;2.50;;;;;;;8.75;100.00;99965.91;5114957;28;20351;-81
2022/09/21 00:26:36;;;;;;;4.00;2.70;;;;;;;8.67;100.00;99970.66;5087589;28;20184;-81
2022/09/21 00:29:05;;;;;;;3.70;2.70;;;;;;;8.57;100.00;99976.31;5087084;28;20196;-81
2022/09/21 00:31:34;;;;;;;5.60;2.83;;;;;;;8.57;100.00;99978.13;5089945;28;20241;-82
2022/09/21 00:34:06;;;;;;;4.90;2.70;;;;;;;8.60;100.00;99978.88;5087311;28;20199;-81
2022/09/21 00:36:35;;;;;;;6.17;2.77;;;;;;;8.63;100.00;99977.00;5084662;28;20203;-81
2022/09/21 00:39:03;;;;;;;4.17;2.80;;;;;;;8.71;100.00;99975.75;5092421;28;20188;-81
2022/09/21 00:41:35;;;;;;;6.70;2.90;;;;;;;8.60;100.00;99984.16;5090583;28;20225;-82
2022/09/21 00:44:23;;;;;;;5.20;2.67;;;;;;;8.57;100.00;99986.03;5087264;28;20272;-81
2022/09/21 00:46:54;;;;;;;2.93;2.63;;;;;;;8.42;100.00;99982.28;5090320;28;20295;-81
2022/09/21 00:49:24;;;;;;;3.87;2.73;;;;;;;8.24;100.00;99991.78;5089503;28;20204;-81
2022/09/21 00:51:53;;;;;;;5.70;2.63;;;;;;;8.31;100.00;99992.41;5107950;28;20698;-81
2022/09/21 00:54:25;;;;;;;4.80;3.00;;;;;;;8.36;100.00;99984.31;5114497;28;20691;-81
2022/09/21 00:57:00;;;;;;;4.23;3.07;;;;;;;8.24;100.00;99994.41;5111005;28;20195;-81
2022/09/21 00:59:31;;;;;;;6.03;2.97;;;;;;;8.20;100.00;100003.41;5114450;27;20222;-81
2022/09/21 01:02:00;;;;;;;3.50;2.60;;;;;;;8.13;100.00;99993.16;5109588;28;20234;-81
2022/09/21 01:04:29;;;;;;;7.47;3.03;;;;;;;8.19;100.00;99995.50;5111881;28;20230;-81
2022/09/21 01:07:02;;;;;;;5.70;3.20;;;;;;;8.13;100.00;99999.28;5106902;28;20231;-81
2022/09/21 01:09:32;;;;;;;4.30;3.07;;;;;;;8.06;100.00;99996.94;5106846;28;20226;-81
2022/09/21 01:12:17;;;;;;;4.67;3.13;;;;;;;8.01;100.00;99994.50;5107401;28;20203;-81
2022/09/21 01:15:17;;;;;;;4.20;2.87;;;;;;;8.16;100.00;99993.88;5114500;28;20261;-82
2022/09/21 01:17:55;;;;;;;3.40;2.67;;;;;;;8.00;100.00;100003.31;5115599;27;20202;-82
2022/09/21 01:21:00;;;;;;;5.77;3.00;;;;;;;7.99;100.00;100006.88;5109648;28;20239;-81
2022/09/21 01:24:07;;;;;;;5.23;2.93;;;;;;;7.92;100.00;100001.00;5096436;27;20263;-81
2022/09/21 01:26:53;;;;;;;6.13;3.20;;;;;;;7.93;100.00;100008.00;5116666;27;20230;-81
2022/09/21 01:29:27;;;;;;;5.80;3.27;;;;;;;7.98;100.00;100005.16;5110876;28;20214;-81
2022/09/21 01:32:04;;;;;;;7.13;3.07;;;;;;;7.94;100.00;100003.56;5112091;28;20193;-82
2022/09/21 01:34:38;;;;;;;4.13;3.27;;;;;;;7.83;100.00;100003.13;5106181;28;20212;-81
2022/09/21 01:37:10;;;;;;;5.13;3.00;;;;;;;8.00;100.00;100003.31;5103079;28;20726;-81
2022/09/21 01:39:41;;;;;;;9.80;3.23;;;;;;;7.91;100.00;99999.28;5110843;28;20661;-81
2022/09/21 01:42:12;;;;;;;8.63;3.90;;;;;;;7.90;100.00;100012.50;5099461;28;20194;-81
2022/09/21 01:44:46;;;;;;;8.13;4.20;;;;;;;7.92;100.00;100018.59;5106598;28;20672;-81
2022/09/21 01:47:17;;;;;;;11.67;3.63;;;;;;;7.84;100.00;100018.91;5103029;28;20218;-82
2022/09/21 01:49:49;;;;;;;12.17;4.13;;;;;;;7.71;100.00;100015.00;5112555;27;20226;-81
2022/09/21 01:52:23;;;;;;;17.93;4.40;;;;;;;7.63;100.00;100012.69;5128099;27;20243;-81
2022/09/21 01:54:55;;;;;;;17.80;4.67;;;;;;;7.53;100.00;100020.97;5129811;27;20213;-81
2022/09/21 01:57:33;;;;;;;7.80;4.20;;;;;;;7.36;100.00;100008.44;5120856;27;20226;-81
2022/09/21 02:00:04;;;;;;;23.20;4.60;;;;;;;7.52;100.00;100014.84;5128973;27;20182;-81
2022/09/21 02:02:42;;;;;;;10.53;4.17;;;;;;;7.45;100.00;100018.66;5075692;28;20215;-82
2022/09/21 02:05:12;;;;;;;12.80;4.30;;;;;;;7.39;100.00;100024.13;5113186;28;20249;-81
2022/09/21 02:07:40;;;;;;;17.10;4.20;;;;;;;7.33;100.00;100024.34;5112167;28;20226;-81
2022/09/21 02:10:13;;;;;;;7.80;4.00;;;;;;;7.32;100.00;100020.00;5115282;28;20221;-81
2022/09/21 02:12:42;;;;;;;8.77;4.23;;;;;;;7.29;100.00;100026.25;5118634;28;20242;-82
2022/09/21 02:15:13;;;;;;;8.60;3.63;;;;;;;7.34;100.00;100028.72;5120369;28;20191;-81
2022/09/21 02:17:53;;;;;;;6.10;3.63;;;;;;;7.21;100.00;100023.03;5116071;28;20199;-81
2022/09/21 02:20:28;;;;;;;4.03;3.30;;;;;;;7.27;100.00;100022.81;5107848;28;20244;-81
2022/09/21 02:23:05;;;;;;;5.37;3.27;;;;;;;7.24;100.00;100022.06;5111290;28;20708;-81
2022/09/21 02:25:42;;;;;;;4.33;3.40;;;;;;;7.39;100.00;100016.22;5107640;28;20194;-81
2022/09/21 02:28:20;;;;;;;5.73;3.27;;;;;;;7.48;100.00;100026.44;5104711;28;20195;-81
2022/09/21 02:30:57;;;;;;;3.77;3.30;;;;;;;7.44;100.00;100023.06;5105307;28;20190;-81
2022/09/21 02:33:31;;;;;;;4.53;3.80;;;;;;;7.35;100.00;100012.88;5103346;28;20227;-81
2022/09/21 02:36:06;;;;;;;4.67;3.17;;;;;;;7.28;100.00;100016.63;5108044;28;20194;-81
2022/09/21 02:38:39;;;;;;;8.77;3.50;;;;;;;7.02;100.00;100019.34;5107862;28;20692;-81
2022/09/21 02:41:15;;;;;;;5.27;3.73;;;;;;;7.16;100.00;100017.09;5115572;27;20262;-81
2022/09/21 02:43:46;;;;;;;7.23;4.17;;;;;;;7.19;100.00;100019.59;5113058;28;20194;-81
2022/09/21 02:46:23;;;;;;;9.80;3.60;;;;;;;7.23;100.00;100021.19;5113158;28;20195;-81
2022/09/21 02:48:55;;;;;;;6.93;3.73;;;;;;;7.25;100.00;100014.13;5109200;28;20658;-81
2022/09/21 02:51:28;;;;;;;17.60;4.27;;;;;;;7.29;100.00;100014.84;5113407;28;20225;-81
2022/09/21 02:53:58;;;;;;;34.67;6.10;;;;;;;7.18;100.00;100016.09;5114054;28;20237;-81
2022/09/21 02:56:28;;;;;;;16.90;4.90;;;;;;;7.27;100.00;100014.06;5114410;28;20191;-80
2022/09/21 02:59:01;;;;;;;61.43;7.07;;;;;;;7.16;100.00;100022.34;5116911;28;20183;-81
2022/09/21 03:01:33;;;;;;;23.17;6.03;;;;;;;7.22;100.00;100019.47;5112656;28;20198;-81
2022/09/21 03:04:02;;;;;;;16.87;5.10;;;;;;;7.25;100.00;100015.91;5116385;27;20227;-81
2022/09/21 03:06:32;;;;;;;31.33;5.37;;;;;;;7.12;100.00;100020.72;5114286;28;20226;-81
2022/09/21 03:09:01;;;;;;;20.50;5.13;;;;;;;7.08;100.00;100020.00;5114330;28;20202;-81
2022/09/21 03:11:29;;;;;;;41.73;7.27;;;;;;;7.06;100.00;100013.91;5119143;27;20238;-81
2022/09/21 03:13:58;;;;;;;20.47;5.70;;;;;;;7.08;100.00;100019.13;5116593;28;20226;-81
2022/09/21 03:16:28;;;;;;;98.83;10.30;;;;;;;7.08;100.00;100021.75;5116465;28;20191;-81
2022/09/21 03:18:59;;;;;;;49.10;6.43;;;;;;;7.11;100.00;100034.81;5116336;28;20231;-81
2022/09/21 03:21:30;;;;;;;50.70;5.40;;;;;;;6.98;100.00;100026.50;5115334;28;20253;-81
2022/09/21 03:23:58;;;;;;;19.13;5.00;;;;;;;6.96;100.00;100035.38;5109846;28;20685;-81
2022/09/21 03:26:27;;;;;;;36.03;6.30;;;;;;;6.88;100.00;100035.63;5115308;27;20183;-81
2022/09/21 03:28:55;;;;;;;43.20;6.70;;;;;;;6.94;100.00;100035.41;5081276;28;20188;-81
2022/09/21 03:31:24;;;;;;;70.90;7.53;;;;;;;6.88;100.00;100039.13;5113105;28;20187;-81
2022/09/21 03:33:52;;;;;;;43.13;7.00;;;;;;;6.77;100.00;100037.78;5116975;28;20236;-81
2022/09/21 03:36:22;;;;;;;40.03;7.53;;;;;;;6.82;100.00;100051.63;5104180;28;20191;-82
2022/09/21 03:38:50;;;;;;;51.60;7.50;;;;;;;6.74;100.00;100046.63;5122178;27;20225;-81
2022/09/21 03:41:19;;;;;;;33.43;6.73;;;;;;;6.80;100.00;100051.69;5113322;28;20199;-81
2022/09/21 03:43:48;;;;;;;45.37;7.40;;;;;;;6.77;100.00;100048.31;5074253;28;20650;-81
2022/09/21 03:46:17;;;;;;;82.37;9.57;;;;;;;6.67;100.00;100046.91;5109355;28;20219;-81
2022/09/21 03:48:48;;;;;;;25.00;5.97;;;;;;;6.78;100.00;100061.44;5112852;28;20195;-82
2022/09/21 03:51:16;;;;;;;83.03;9.90;;;;;;;6.78;100.00;100060.56;5111675;28;20195;-81
2022/09/21 03:53:45;;;;;;;120.00;10.77;;;;;;;6.64;100.00;100063.66;5114547;28;20241;-81
2022/09/21 03:56:14;;;;;;;84.33;8.87;;;;;;;6.70;100.00;100062.59;5106976;28;20264;-81
2022/09/21 03:58:42;;;;;;;96.40;9.10;;;;;;;6.71;100.00;100059.91;5116002;27;20275;-81
2022/09/21 04:01:10;;;;;;;86.57;9.43;;;;;;;6.70;100.00;100067.84;5108223;28;20214;-81
2022/09/21 04:03:45;;;;;;;65.77;8.50;;;;;;;6.62;100.00;100070.75;5115259;28;20223;-81
2022/09/21 04:06:15;;;;;;;60.87;7.53;;;;;;;6.54;100.00;100059.59;5114148;28;20241;-81
2022/09/21 04:08:44;;;;;;;43.47;6.73;;;;;;;6.60;100.00;100056.78;5115547;28;20210;-81
2022/09/21 04:11:20;;;;;;;25.13;6.10;;;;;;;6.53;100.00;100064.00;5112940;28;20191;-80
2022/09/21 04:13:55;;;;;;;53.33;7.13;;;;;;;6.52;100.00;100058.78;5118037;27;20313;-81
2022/09/21 04:16:25;;;;;;;28.37;7.03;;;;;;;6.49;100.00;100066.81;5092526;28;20257;-81
2022/09/21 04:18:53;;;;;;;20.53;5.97;;;;;;;6.52;100.00;100061.44;5092820;28;20192;-81
2022/09/21 04:21:22;;;;;;;43.60;6.80;;;;;;;6.43;100.00;100064.34;5088845;28;20227;-81
2022/09/21 04:23:52;;;;;;;11.07;5.40;;;;;;;6.46;100.00;100066.88;5090413;28;20199;-81
2022/09/21 04:26:23;;;;;;;34.97;6.00;;;;;;;6.30;100.00;100064.75;5089979;28;20689;-81
2022/09/21 04:28:52;;;;;;;24.00;6.67;;;;;;;6.38;100.00;100061.03;5092615;28;20681;-81
2022/09/21 04:31:20;;;;;;;39.97;7.40;;;;;;;6.22;100.00;100058.88;5089869;28;20203;-81
2022/09/21 04:33:50;;;;;;;13.93;5.77;;;;;;;6.27;100.00;100063.97;5090126;28;20244;-81
2022/09/21 04:36:20;;;;;;;32.57;6.63;;;;;;;6.19;100.00;100069.50;5113680;27;20753;-81
2022/09/21 04:38:48;;;;;;;46.97;6.33;;;;;;;6.27;100.00;100064.88;5128181;27;20205;-81
2022/09/21 04:41:19;;;;;;;21.53;6.27;;;;;;;6.25;100.00;100068.44;5125147;27;20211;-81
2022/09/21 04:43:51;;;;;;;8.70;5.20;;;;;;;6.13;100.00;100068.81;5131014;27;20190;-81
2022/09/21 04:46:21;;;;;;;23.00;5.37;;;;;;;6.13;100.00;100066.19;5127974;27;20214;-81
2022/09/21 04:48:50;;;;;;;18.97;6.20;;;;;;;6.16;100.00;100066.09;5127357;27;20239;-81
2022/09/21 04:51:18;;;;;;;20.83;6.20;;;;;;;6.17;100.00;100071.28;5124054;27;20198;-82
2022/09/21 04:53:47;;;;;;;10.03;5.10;;;;;;;6.23;100.00;100075.53;5128205;27;20192;-81
2022/09/21 04:56:18;;;;;;;11.97;5.30;;;;;;;6.27;100.00;100067.50;5125135;27;20190;-81
2022/09/21 04:58:46;;;;;;;10.17;5.07;;;;;;;6.19;100.00;100076.53;5126804;27;20205;-81
2022/09/21 05:01:15;;;;;;;9.20;5.03;;;;;;;6.11;100.00;100078.53;5125335;27;20250;-81
2022/09/21 05:03:44;;;;;;;10.07;5.00;;;;;;;6.19;100.00;100080.03;5069052;28;20257;-81
2022/09/21 05:06:16;;;;;;;9.20;4.60;;;;;;;6.19;100.00;100087.06;5067855;28;20230;-81
2022/09/21 05:11:32;;;;;;;15.23;5.50;;;;;;;6.27;100.00;100078.03;5070542;28;20196;-80
2022/09/21 05:14:00;;;;;;;8.57;4.70;;;;;;;6.30;100.00;100080.53;5066407;28;20224;-81
2022/09/21 05:16:29;;;;;;;5.60;4.63;;;;;;;6.24;100.00;100090.38;5064972;28;20224;-81
2022/09/21 05:18:57;;;;;;;6.37;4.87;;;;;;;6.13;100.00;100085.47;5071361;28;20197;-81
2022/09/21 05:21:26;;;;;;;5.83;5.03;;;;;;;6.18;100.00;100087.97;5079520;28;20252;-81
2022/09/21 05:23:54;;;;;;;7.10;6.37;;;;;;;6.09;100.00;100083.84;5113802;28;20230;-81
2022/09/21 05:26:26;;;;;;;7.53;5.33;;;;;;;6.10;100.00;100082.09;5109969;28;20219;-82
2022/09/21 05:28:57;;;;;;;7.60;4.93;;;;;;;6.11;100.00;100089.06;5095324;28;20191;-81
2022/09/21 05:31:40;;;;;;;7.47;5.40;;;;;;;6.11;100.00;100091.69;5113166;28;20194;-81
2022/09/21 05:34:21;;;;;;;5.67;4.63;;;;;;;5.86;100.00;100088.91;5065831;28;20200;-81
2022/09/21 05:36:59;;;;;;;8.90;4.70;;;;;;;5.84;100.00;100088.09;5064704;28;20232;-81
2022/09/21 05:39:30;;;;;;;5.53;4.70;;;;;;;5.81;100.00;100086.41;5071327;28;20267;-81
2022/09/21 05:41:59;;;;;;;7.13;4.13;;;;;;;5.97;100.00;100092.94;5066788;28;20250;-81
2022/09/21 05:44:30;;;;;;;5.17;4.40;;;;;;;5.98;100.00;100101.69;5068260;28;20291;-81
2022/09/21 05:47:02;;;;;;;5.27;4.10;;;;;;;5.96;100.00;100106.16;5018261;28;20185;-80
2022/09/21 05:49:46;;;;;;;5.10;3.93;;;;;;;5.95;100.00;100110.56;5065924;28;20185;-80
2022/09/21 05:52:22;;;;;;;4.13;3.73;;;;;;;6.10;100.00;100109.25;5085979;28;20225;-81
2022/09/21 05:55:06;;;;;;;4.60;4.10;;;;;;;5.94;100.00;100106.19;5113277;28;20250;-80
2022/09/21 05:57:46;;;;;;;5.17;4.30;;;;;;;6.05;100.00;100103.25;5113548;28;20240;-81
2022/09/21 06:00:19;;;;;;;5.80;4.37;;;;;;;5.95;100.00;100107.91;5110803;28;20198;-81
2022/09/21 06:03:18;;;;;;;7.83;4.60;;;;;;;6.03;100.00;100107.69;5113475;28;20222;-81
2022/09/21 06:05:46;;;;;;;6.67;4.47;;;;;;;6.05;100.00;100111.13;5107253;28;20713;-81
2022/09/21 06:08:17;;;;;;;7.90;4.97;;;;;;;6.08;100.00;100120.69;5110902;28;20248;-81
2022/09/21 06:10:45;;;;;;;10.00;5.03;;;;;;;6.13;100.00;100121.44;5111102;28;20195;-81
2022/09/21 06:13:15;;;;;;;11.23;5.13;;;;;;;6.14;100.00;100128.41;5113136;27;20198;-81
2022/09/21 06:15:47;;;;;;;10.27;5.53;;;;;;;6.05;100.00;100124.28;5111320;28;20320;-81
2022/09/21 06:18:18;;;;;;;13.77;5.67;;;;;;;6.25;100.00;100131.56;5113639;28;20248;-81
2022/09/21 06:20:48;;;;;;;14.33;5.63;;;;;;;6.33;100.00;100126.94;5110843;28;20195;-81
2022/09/21 06:23:16;;;;;;;14.57;5.20;;;;;;;6.35;100.00;100138.28;5115818;28;20191;-81
2022/09/21 06:25:51;;;;;;;17.77;6.23;;;;;;;6.37;100.00;100139.09;5112438;28;20195;-81
2022/09/21 06:28:26;;;;;;;10.77;5.77;;;;;;;6.47;100.00;100135.28;5116173;27;20701;-81
2022/09/21 06:30:58;;;;;;;13.37;6.50;;;;;;;6.32;100.00;100133.13;5117317;28;20187;-81
2022/09/21 06:33:26;;;;;;;11.77;6.27;;;;;;;6.42;100.00;100141.59;5112062;28;20190;-81
2022/09/21 06:35:56;;;;;;;9.57;5.63;;;;;;;6.54;100.00;100139.41;5116076;28;20250;-81
2022/09/21 06:38:27;;;;;;;8.20;5.57;;;;;;;6.68;100.00;100139.00;5114318;28;20222;-80
2022/09/21 06:41:01;;;;;;;9.67;5.73;;;;;;;6.51;100.00;100139.53;5116982;28;20220;-81
2022/09/21 06:43:29;;;;;;;9.40;5.50;;;;;;;6.69;100.00;100137.22;5119847;27;20195;-80
2022/09/21 06:46:02;;;;;;;20.27;7.07;;;;;;;6.65;100.00;100141.69;5117257;27;20268;-82
2022/09/21 06:48:33;;;;;;;11.90;6.67;;;;;;;6.88;100.00;100141.84;5114267;28;20194;-82
2022/09/21 06:51:03;;;;;;;10.63;6.30;;;;;;;6.89;100.00;100145.31;5115640;28;20187;-81
2022/09/21 06:53:34;;;;;;;26.70;7.70;;;;;;;6.80;100.00;100150.88;5115693;28;20198;-80
2022/09/21 06:56:03;;;;;;;9.37;6.73;;;;;;;7.08;100.00;100149.06;5117968;28;20283;-81
2022/09/21 06:58:38;;;;;;;10.60;6.53;;;;;;;7.21;100.00;100151.28;5116687;28;20183;-81
2022/09/21 07:01:09;;;;;;;10.77;6.77;;;;;;;7.34;100.00;100155.22;5095926;28;20195;-80
2022/09/21 07:03:39;;;;;;;9.43;6.53;;;;;;;7.38;100.00;100151.56;5111968;28;20187;-80
2022/09/21 07:06:10;;;;;;;9.33;6.83;;;;;;;7.42;100.00;100148.75;5112190;28;20202;-80
2022/09/21 07:08:39;;;;;;;11.00;7.67;;;;;;;7.39;100.00;100145.38;5117070;27;20666;-80
2022/09/21 07:11:28;;;;;;;10.23;6.97;;;;;;;7.64;100.00;100148.88;5117016;28;20195;-81
2022/09/21 07:13:57;;;;;;;11.00;6.97;;;;;;;7.70;100.00;100156.53;5115112;28;20218;-81
2022/09/21 07:16:28;;;;;;;12.33;7.70;;;;;;;7.81;100.00;100156.16;5110718;28;20230;-80
2022/09/21 07:18:56;;;;;;;13.03;8.03;;;;;;;7.93;100.00;100153.06;5112965;28;20190;-81
2022/09/21 07:21:37;;;;;;;10.30;7.57;;;;;;;8.09;100.00;100163.91;5110931;28;20202;-83
2022/09/21 07:24:05;;;;;;;12.30;7.30;;;;;;;8.29;100.00;100171.06;5116036;27;20248;-81
2022/09/21 07:26:39;;;;;;;11.37;7.33;;;;;;;8.28;100.00;100164.91;5073751;28;20230;-81
2022/09/21 07:29:08;;;;;;;11.30;7.43;;;;;;;8.38;100.00;100165.47;5071042;28;20196;-81
2022/09/21 07:31:38;;;;;;;10.27;7.53;;;;;;;8.64;100.00;100167.09;5073911;28;20195;-81
2022/09/21 07:34:06;;;;;;;10.40;7.87;;;;;;;8.75;100.00;100161.38;5060503;28;20200;-81
2022/09/21 07:36:34;;;;;;;9.37;6.90;;;;;;;8.90;100.00;100163.41;5065306;28;20316;-82
2022/09/21 07:39:04;;;;;;;11.30;7.00;;;;;;;9.13;100.00;100167.72;5073678;28;20701;-82
2022/09/21 07:41:32;;;;;;;10.57;7.33;;;;;;;9.23;100.00;100155.84;5063526;28;20224;-82
2022/09/21 07:44:01;;;;;;;8.57;7.10;;;;;;;9.36;100.00;100170.28;5071773;28;20654;-81
2022/09/21 07:46:30;;;;;;;9.67;7.00;;;;;;;9.46;100.00;100162.81;5108864;28;20251;-81
2022/09/21 07:49:00;;;;;;;9.83;7.10;;;;;;;9.56;100.00;100156.19;5111330;28;20264;-81
2022/09/21 07:51:28;;;;;;;12.40;8.00;;;;;;;9.61;100.00;100158.59;5112108;28;20260;-82
2022/09/21 07:53:58;;;;;;;10.40;7.63;;;;;;;9.90;100.00;100150.22;5112916;28;20231;-81
2022/09/21 07:56:28;;;;;;;12.73;8.13;;;;;;;10.01;100.00;100158.53;5115615;28;20215;-81
2022/09/21 07:59:06;;;;;;;12.30;8.43;;;;;;;10.01;100.00;100149.75;5112621;28;20218;-80
2022/09/21 08:01:36;;;;;;;12.17;8.70;;;;;;;10.22;100.00;100151.41;5072086;28;20196;-81
2022/09/21 08:04:08;;;;;;;13.70;10.17;;;;;;;10.47;100.00;100158.22;5068982;28;20223;-82
2022/09/21 08:06:38;;;;;;;19.60;11.70;;;;;;;10.42;100.00;100149.63;5068515;28;20287;-82
2022/09/21 08:09:08;;;;;;;17.20;11.57;;;;;;;10.58;100.00;100142.69;5073203;28;20256;-82
2022/09/21 08:11:40;;;;;;;25.17;14.77;;;;;;;10.71;100.00;100143.81;5070632;28;20220;-82
2022/09/21 08:14:10;;;;;;;20.23;14.27;;;;;;;10.80;100.00;100131.88;5069831;28;20223;-81
2022/09/21 08:16:38;;;;;;;22.17;15.57;;;;;;;10.87;100.00;100134.16;5070095;28;20257;-82
2022/09/21 08:19:08;;;;;;;20.47;13.97;;;;;;;11.25;100.00;100127.88;5072690;28;20706;-81
2022/09/21 08:21:36;;;;;;;20.50;14.20;;;;;;;11.31;100.00;100128.41;5071283;28;20239;-81
2022/09/21 08:24:05;;;;;;;20.37;13.13;;;;;;;11.18;100.00;100127.31;5070008;28;20204;-82
2022/09/21 08:26:33;;;;;;;19.83;12.77;;;;;;;11.45;100.00;100131.22;5070285;28;20205;-82
2022/09/21 08:29:03;;;;;;;19.20;12.10;;;;;;;11.29;100.00;100116.16;5066864;28;20203;-82
2022/09/21 08:31:31;;;;;;;19.50;12.10;;;;;;;11.18;100.00;100117.56;5075868;27;20663;-81
2022/09/21 08:34:00;;;;;;;19.33;10.30;;;;;;;11.58;100.00;100118.19;5124237;27;20198;-82
2022/09/21 08:36:30;;;;;;;14.67;9.93;;;;;;;11.95;100.00;100126.84;5127235;27;20210;-83
2022/09/21 08:39:01;;;;;;;15.30;10.00;;;;;;;11.82;100.00;100125.78;5125459;27;20186;-82
2022/09/21 08:41:50;;;;;;;14.90;8.90;;;;;;;12.09;100.00;100112.81;5127709;27;20217;-82
2022/09/21 08:44:23;;;;;;;12.00;8.03;;;;;;;12.44;100.00;100113.50;5096260;28;20340;-85
2022/09/21 08:47:02;;;;;;;11.53;8.10;;;;;;;12.56;100.00;100113.69;5107420;28;20195;-83
2022/09/21 08:49:38;;;;;;;13.83;7.27;;;;;;;12.90;100.00;100101.09;5113155;28;20187;-84
2022/09/21 08:52:13;;;;;;;12.13;7.43;;;;;;;12.83;100.00;100107.72;5113733;28;20229;-82
2022/09/21 08:54:50;;;;;;;13.63;6.43;;;;;;;13.04;100.00;100095.84;5114682;28;20255;-84
2022/09/21 08:57:20;;;;;;;10.83;6.23;;;;;;;13.33;100.00;100096.78;5118688;27;20237;-82
2022/09/21 08:59:49;;;;;;;8.43;5.90;;;;;;;13.61;100.00;100097.78;5114328;27;20195;-82
2022/09/21 09:02:37;;;;;;;9.33;5.67;;;;;;;13.55;100.00;100098.16;5114374;28;20193;-81
2022/09/21 09:05:21;;;;;;;7.23;5.20;;;;;;;13.74;100.00;100093.41;5113765;27;20251;-82
2022/09/21 09:08:09;;;;;;;7.27;5.60;;;;;;;13.99;100.00;100087.38;5112992;28;20187;-83
2022/09/21 09:10:41;;;;;;;7.50;5.70;;;;;;;13.44;100.00;100093.47;5110469;28;20255;-81
2022/09/21 09:13:35;;;;;;;10.63;5.80;;;;;;;13.69;100.00;100080.34;5110256;28;20199;-82
2022/09/21 09:16:13;;;;;;;7.10;5.20;;;;;;;14.14;100.00;100085.56;5114339;28;20194;-81
2022/09/21 09:18:49;;;;;;;7.50;4.57;;;;;;;14.13;100.00;100081.19;5113987;28;20198;-83
2022/09/21 09:21:24;;;;;;;6.27;4.60;;;;;;;14.02;100.00;100079.22;5107260;28;20244;-83
2022/09/21 09:24:04;;;;;;;6.60;4.27;;;;;;;14.15;100.00;100074.81;5113702;28;20225;-83
2022/09/21 09:26:41;;;;;;;8.47;4.00;;;;;;;14.52;100.00;100072.47;5088304;28;20222;-81
2022/09/21 09:29:18;;;;;;;6.07;3.77;;;;;;;14.45;100.00;100080.00;5087853;28;20199;-83
2022/09/21 09:31:48;;;;;;;9.77;4.40;;;;;;;14.49;100.00;100078.00;5091516;28;20222;-81
2022/09/21 09:34:29;;;;;;;7.27;3.97;;;;;;;14.99;100.00;100066.63;5086613;28;20188;-81
2022/09/21 09:37:00;;;;;;;5.83;3.00;;;;;;;15.13;100.00;100071.00;5052813;28;20276;-82
2022/09/21 09:39:31;;;;;;;4.90;2.53;;;;;;;15.51;100.00;100067.53;5083787;28;20188;-84
2022/09/21 09:42:25;;;;;;;5.17;1.90;;;;;;;15.47;100.00;100064.22;5089124;28;20322;-81
2022/09/21 09:45:23;;;;;;;3.80;1.70;;;;;;;15.89;100.00;100067.53;5097445;28;20198;-82
2022/09/21 09:48:08;;;;;;;3.03;1.70;;;;;;;16.46;100.00;100064.25;5113543;28;20198;-82
2022/09/21 09:50:38;;;;;;;4.50;1.80;;;;;;;16.15;100.00;100063.84;5111019;27;20255;-82
2022/09/21 09:53:11;;;;;;;4.87;2.30;;;;;;;16.27;100.00;100060.25;5111040;28;20187;-82
2022/09/21 09:55:44;;;;;;;3.90;2.27;;;;;;;16.46;100.00;100069.59;5110979;28;20206;-82
2022/09/21 09:58:18;;;;;;;3.77;1.77;;;;;;;16.90;100.00;100063.66;5109931;28;20247;-82
2022/09/21 10:00:51;;;;;;;5.47;2.17;;;;;;;16.99;100.00;100062.09;5106155;28;20195;-82
2022/09/21 10:03:22;;;;;;;6.03;1.93;;;;;;;17.22;100.00;100063.00;5110093;28;20191;-82
2022/09/21 10:05:50;;;;;;;4.87;1.93;;;;;;;17.33;100.00;100065.72;5109605;28;20280;-82
2022/09/21 10:08:30;;;;;;;2.93;2.00;;;;;;;17.65;100.00;100061.34;5113625;28;20639;-81
2022/09/21 10:11:00;;;;;;;4.13;1.70;;;;;;;17.32;100.00;100058.66;5110954;28;20187;-81
2022/09/21 10:13:31;;;;;;;2.23;1.50;;;;;;;17.25;100.00;100060.09;5113289;28;20248;-82
2022/09/21 10:16:04;;;;;;;3.20;1.70;;;;;;;17.59;100.00;100052.97;5108070;28;20259;-82
2022/09/21 10:18:38;;;;;;;3.13;1.53;;;;;;;18.12;100.00;100050.53;5109153;28;20244;-82
2022/09/21 10:21:09;;;;;;;3.40;1.67;;;;;;;17.81;100.00;100052.16;5107180;28;20237;-82
2022/09/21 10:23:40;;;;;;;3.77;1.10;;;;;;;18.38;98.55;100051.09;5113256;28;20645;-83
2022/09/21 10:26:19;;;;;;;2.57;1.10;;;;;;;18.65;94.13;100037.25;5084610;28;20634;-83
2022/09/21 10:28:59;;;;;;;2.87;0.93;;;;;;;18.29;85.40;100040.13;5071763;28;20195;-83
2022/09/21 10:31:29;;;;;;;2.07;1.03;;;;;;;18.38;84.83;100038.53;5085451;28;20343;-82
2022/09/21 10:34:13;;;;;;;2.30;1.10;;;;;;;18.79;86.19;100031.56;5065819;28;20200;-83
2022/09/21 10:36:50;;;;;;;2.47;0.90;;;;;;;18.82;83.61;100034.03;5066713;28;20674;-85
2022/09/21 10:39:30;;;;;;;4.43;1.10;;;;;;;18.56;86.65;100030.78;5067572;28;20747;-83
2022/09/21 10:42:03;;;;;;;2.00;0.90;;;;;;;18.98;79.08;100026.34;5066142;28;20195;-83
2022/09/21 10:44:42;;;;;;;5.93;1.63;;;;;;;19.08;79.61;100029.09;5079086;28;20234;-83
2022/09/21 10:47:21;;;;;;;2.13;0.70;;;;;;;18.95;72.92;100021.25;5090889;28;20187;-85
2022/09/21 10:49:52;;;;;;;3.67;0.80;;;;;;;18.71;72.15;100026.84;5090642;28;20183;-83
2022/09/21 10:52:23;;;;;;;1.77;0.63;;;;;;;19.14;69.00;100024.06;5097094;28;20202;-85
2022/09/21 10:54:55;;;;;;;2.27;1.17;;;;;;;18.84;75.71;100022.16;5106726;28;20229;-86
2022/09/21 10:57:27;;;;;;;1.90;0.83;;;;;;;19.01;72.82;100020.75;5107319;28;20195;-83
2022/09/21 10:59:56;;;;;;;4.43;1.00;;;;;;;19.16;71.86;100023.94;5070297;28;20228;-86
2022/09/21 11:02:37;;;;;;;2.40;1.03;;;;;;;18.81;74.64;100018.88;5062240;28;20349;-86
2022/09/21 11:05:15;;;;;;;3.23;1.07;;;;;;;18.91;73.45;100018.94;5067664;28;20216;-85
2022/09/21 11:07:49;;;;;;;1.30;0.70;;;;;;;19.04;68.59;100023.16;5068442;28;20200;-85
2022/09/21 11:10:24;;;;;;;2.97;0.80;;;;;;;19.20;64.65;100021.81;4990271;28;20218;-84
2022/09/21 11:13:21;;;;;;;1.83;0.80;;;;;;;19.42;64.28;100027.06;4988722;28;20230;-84
2022/09/21 11:15:57;;;;;;;4.23;1.00;;;;;;;19.38;64.64;100018.41;4990277;28;20207;-84
2022/09/21 11:18:37;;;;;;;4.03;0.90;;;;;;;19.21;66.50;100020.88;5029447;28;20289;-84
2022/09/21 11:21:13;;;;;;;1.80;1.00;;;;;;;19.45;65.18;100019.59;5019742;28;20185;-90
2022/09/21 11:23:50;;;;;;;1.07;0.80;;;;;;;19.57;65.04;100016.84;5048516;28;20212;-84
2022/09/21 11:26:26;;;;;;;5.27;1.20;;;;;;;19.65;66.50;100019.69;5051990;28;20189;-84
2022/09/21 11:29:05;;;;;;;2.83;0.87;;;;;;;19.68;65.63;100019.44;5089873;28;20203;-84
2022/09/21 11:31:42;;;;;;;2.20;0.93;;;;;;;19.07;64.75;100024.72;5115112;28;20232;-84
2022/09/21 11:34:31;;;;;;;1.40;0.80;;;;;;;19.49;63.81;100013.94;5119051;27;20649;-84
2022/09/21 11:37:12;;;;;;;2.07;0.70;;;;;;;18.87;62.03;100018.38;5110960;28;20222;-82
2022/09/21 11:40:00;;;;;;;1.47;0.90;;;;;;;19.02;65.58;100009.03;5110777;28;20261;-84
2022/09/21 11:42:48;;;;;;;2.80;1.03;;;;;;;18.49;72.85;99998.25;5112267;28;20203;-84
2022/09/21 11:45:33;;;;;;;1.50;0.90;;;;;;;19.26;69.32;99997.97;5113173;28;20191;-84
2022/09/21 11:48:13;;;;;;;3.13;1.03;;;;;;;18.95;70.96;99991.72;5114769;28;20218;-84
2022/09/21 11:50:53;;;;;;;1.60;0.90;;;;;;;20.00;65.50;99990.53;5109580;28;20255;-84
2022/09/21 11:53:45;;;;;;;1.80;1.00;;;;;;;20.99;61.99;99990.47;5114036;28;20198;-84